Time;durP1;ratioP1;P1;durP2;ratioP2;P2;SDS_P1;SDS_P2;PMS_P1;PMS_P2;Temp;Humidity;BMP_temperature;BMP_pressure;BME280_temperature;BME280_humidity;BME280_pressure;Samples;Min_cycle;Max_cycle;Signal;HPM_P1;HPM_P2
2022/04/16 00:01:28;;;;;;;6.15;4.47;;;;;;;9.67;69.04;101557.38;5007447;28;20130;-75
2022/04/16 00:03:55;;;;;;;5.78;4.05;;;;;;;9.91;69.20;101589.44;4994495;28;20088;-76
2022/04/16 00:06:22;;;;;;;5.43;4.47;;;;;;;9.92;68.93;101584.06;4997009;28;20236;-74
2022/04/16 00:08:49;;;;;;;4.20;3.80;;;;;;;9.87;69.15;101579.81;5002410;28;20065;-74
2022/04/16 00:11:15;;;;;;;4.38;3.95;;;;;;;9.88;69.75;101585.06;4999080;28;20498;-74
2022/04/16 00:13:42;;;;;;;4.80;4.10;;;;;;;9.96;69.44;101595.44;5002926;28;20117;-75
2022/04/16 00:16:09;;;;;;;4.50;4.10;;;;;;;9.96;69.39;101590.16;5006992;28;20061;-74
2022/04/16 00:18:36;;;;;;;5.10;4.38;;;;;;;9.80;69.49;101563.22;5003930;28;20169;-74
2022/04/16 00:21:05;;;;;;;6.30;4.57;;;;;;;9.92;69.84;101583.19;4999283;28;20065;-76
2022/04/16 00:23:31;;;;;;;5.10;4.30;;;;;;;9.95;70.29;101588.41;5006864;28;20165;-73
2022/04/16 00:25:58;;;;;;;4.90;3.83;;;;;;;9.93;70.37;101585.81;5007833;28;20056;-74
2022/04/16 00:28:27;;;;;;;5.47;4.15;;;;;;;9.92;70.30;101592.00;5006180;28;20049;-73
2022/04/16 00:30:56;;;;;;;5.10;4.38;;;;;;;9.97;70.85;101598.06;5004742;28;20453;-73
2022/04/16 00:33:25;;;;;;;5.88;4.38;;;;;;;10.00;70.84;101594.47;5000880;28;20140;-74
2022/04/16 00:35:52;;;;;;;5.00;3.90;;;;;;;9.90;71.11;101577.97;5002911;28;20141;-75
2022/04/16 00:38:19;;;;;;;5.30;4.10;;;;;;;10.01;70.74;101588.28;5001325;28;20111;-74
2022/04/16 00:40:46;;;;;;;5.40;4.82;;;;;;;10.10;70.88;101591.53;5000932;28;20085;-76
2022/04/16 00:43:29;;;;;;;5.90;4.57;;;;;;;10.13;70.65;101582.66;5001785;28;20820;-74
2022/04/16 00:45:56;;;;;;;5.65;4.50;;;;;;;10.14;70.72;101589.69;5005146;28;20050;-74
2022/04/16 00:48:23;;;;;;;8.13;4.70;;;;;;;10.09;71.20;101584.50;5005231;28;20045;-75
2022/04/16 00:50:52;;;;;;;6.30;4.85;;;;;;;10.04;71.40;101578.47;5004055;28;20903;-74
2022/04/16 00:53:20;;;;;;;6.60;4.80;;;;;;;9.81;71.88;101549.09;5003179;28;20084;-74
2022/04/16 00:55:47;;;;;;;5.55;4.70;;;;;;;10.01;72.04;101582.97;5002876;28;20073;-76
2022/04/16 00:58:14;;;;;;;5.47;4.90;;;;;;;9.97;72.37;101570.72;4997489;28;20141;-76
2022/04/16 01:00:41;;;;;;;6.40;5.32;;;;;;;9.97;72.44;101568.94;5002629;28;20511;-75
2022/04/16 01:03:08;;;;;;;5.80;4.80;;;;;;;10.01;72.65;101573.25;5002257;28;20474;-75
2022/04/16 01:05:37;;;;;;;6.93;5.40;;;;;;;10.09;72.82;101583.63;5005327;28;20042;-76
2022/04/16 01:08:04;;;;;;;6.03;4.90;;;;;;;10.07;72.98;101581.03;4999279;28;20114;-73
2022/04/16 01:10:33;;;;;;;7.68;5.40;;;;;;;10.08;72.91;101582.75;5005325;28;20042;-76
2022/04/16 01:13:03;;;;;;;6.43;5.05;;;;;;;10.12;73.15;101589.72;5002147;28;20085;-73
2022/04/16 01:15:30;;;;;;;6.88;5.53;;;;;;;10.16;73.45;101591.41;5014590;28;20054;-74
2022/04/16 01:17:59;;;;;;;6.82;5.75;;;;;;;10.18;73.57;101588.72;5005886;28;20050;-76
2022/04/16 01:20:26;;;;;;;8.52;5.53;;;;;;;10.14;73.79;101579.97;4998934;28;20073;-77
2022/04/16 01:22:54;;;;;;;6.80;5.82;;;;;;;10.11;73.91;101573.88;4998713;28;20054;-76
2022/04/16 01:25:24;;;;;;;7.53;5.80;;;;;;;10.19;73.75;101579.91;5002764;28;20049;-75
2022/04/16 01:27:50;;;;;;;8.27;6.28;;;;;;;10.27;73.49;101592.91;5002898;28;20050;-74
2022/04/16 01:30:19;;;;;;;6.65;5.65;;;;;;;10.26;73.78;101584.09;5002718;28;20125;-75
2022/04/16 01:32:46;;;;;;;11.70;6.25;;;;;;;10.31;74.22;101599.88;5001354;28;20054;-74
2022/04/16 01:35:14;;;;;;;7.80;6.10;;;;;;;10.33;73.89;101593.63;4993928;28;20512;-73
2022/04/16 01:37:40;;;;;;;8.52;6.18;;;;;;;10.11;73.70;101558.00;4996522;28;20046;-76
2022/04/16 01:40:10;;;;;;;8.90;6.57;;;;;;;10.31;74.20;101587.50;4997033;28;20050;-74
2022/04/16 01:42:37;;;;;;;8.75;6.63;;;;;;;10.28;73.97;101582.28;4998817;28;20100;-73
2022/04/16 01:45:08;;;;;;;8.75;6.45;;;;;;;10.14;74.48;101572.03;5002997;28;20427;-75
2022/04/16 01:47:38;;;;;;;7.45;6.38;;;;;;;10.29;74.10;101602.56;5003365;28;20054;-76
2022/04/16 01:50:10;;;;;;;9.00;6.80;;;;;;;10.09;74.64;101567.75;5001455;28;20064;-74
2022/04/16 01:52:38;;;;;;;10.90;7.18;;;;;;;10.09;74.93;101573.06;4999104;28;20088;-74
2022/04/16 01:55:05;;;;;;;9.77;6.65;;;;;;;10.03;74.81;101567.94;4999479;28;20085;-76
2022/04/16 01:57:33;;;;;;;9.85;7.80;;;;;;;10.24;75.17;101595.63;5000332;28;20165;-75
2022/04/16 01:59:59;;;;;;;9.48;7.20;;;;;;;10.09;74.95;101571.28;5001783;28;20074;-75
2022/04/16 02:02:26;;;;;;;12.02;8.30;;;;;;;10.22;74.97;101595.69;5002612;28;20075;-75
2022/04/16 02:04:53;;;;;;;9.95;7.70;;;;;;;10.14;75.30;101592.34;4999664;28;20054;-75
2022/04/16 02:07:20;;;;;;;11.52;7.95;;;;;;;10.12;75.75;101589.72;4999987;28;20082;-74
2022/04/16 02:09:47;;;;;;;10.98;8.80;;;;;;;10.09;75.54;101584.50;4999306;28;20042;-74
2022/04/16 02:12:14;;;;;;;16.40;9.10;;;;;;;10.09;75.93;101581.84;4998638;28;20498;-74
2022/04/16 02:14:40;;;;;;;12.18;9.32;;;;;;;9.98;75.91;101567.19;5003254;28;20061;-74
2022/04/16 02:17:07;;;;;;;14.80;9.30;;;;;;;10.02;75.87;101579.44;4999025;28;20483;-75
2022/04/16 02:19:36;;;;;;;11.32;9.02;;;;;;;9.93;76.13;101575.22;5003745;28;20064;-76
2022/04/16 02:22:03;;;;;;;13.65;9.30;;;;;;;9.96;76.39;101596.31;5005863;28;20069;-74
2022/04/16 02:24:30;;;;;;;15.15;10.20;;;;;;;9.97;76.81;101594.53;5006428;28;20077;-75
2022/04/16 02:26:57;;;;;;;12.68;9.52;;;;;;;9.95;76.63;101609.59;5001957;28;20462;-75
2022/04/16 02:29:23;;;;;;;14.90;10.55;;;;;;;9.91;76.92;101613.25;4998691;28;20394;-75
2022/04/16 02:31:50;;;;;;;13.23;9.63;;;;;;;9.90;77.07;101600.91;4999753;28;20128;-75
2022/04/16 02:34:19;;;;;;;13.07;9.88;;;;;;;9.88;76.95;101597.44;5005708;28;20054;-75
2022/04/16 02:36:45;;;;;;;17.25;10.25;;;;;;;9.87;76.80;101596.56;5005951;28;20525;-74
2022/04/16 02:39:12;;;;;;;13.73;9.63;;;;;;;9.85;76.93;101595.72;5000830;28;20046;-75
2022/04/16 02:41:39;;;;;;;14.10;9.90;;;;;;;9.83;77.21;101600.19;5007291;28;20517;-73
2022/04/16 02:44:06;;;;;;;12.45;9.05;;;;;;;9.91;77.62;101605.31;5006419;28;20722;-74
2022/04/16 02:49:18;;;;;;;11.48;9.27;;;;;;;9.92;77.28;101609.66;5005526;28;20053;-73
2022/04/16 02:51:45;;;;;;;12.35;9.98;;;;;;;9.83;76.70;101606.34;5006735;28;20050;-76
2022/04/16 02:54:12;;;;;;;13.73;9.32;;;;;;;9.91;76.95;101616.75;5013463;28;20158;-74
2022/04/16 02:56:38;;;;;;;13.05;9.52;;;;;;;9.91;77.34;101619.41;5014630;28;20483;-75
2022/04/16 02:59:05;;;;;;;14.48;10.05;;;;;;;9.85;77.25;101606.31;5008959;28;20327;-75
2022/04/16 03:01:32;;;;;;;13.65;10.13;;;;;;;9.89;77.17;101618.56;5006998;28;20042;-76
2022/04/16 03:03:59;;;;;;;13.50;9.43;;;;;;;9.87;77.42;101615.09;5009800;28;20050;-75
2022/04/16 03:06:25;;;;;;;13.82;10.43;;;;;;;9.78;77.21;101602.94;5004158;28;20127;-75
2022/04/16 03:08:52;;;;;;;14.65;10.15;;;;;;;9.86;77.27;101621.28;5009111;28;20054;-75
2022/04/16 03:11:18;;;;;;;13.25;10.18;;;;;;;9.85;77.56;101624.81;5007207;28;20085;-75
2022/04/16 03:13:46;;;;;;;12.88;9.90;;;;;;;9.88;77.82;101624.75;5003586;28;20509;-75
2022/04/16 03:18:58;;;;;;;16.00;10.40;;;;;;;9.85;77.99;101630.13;4998870;28;20454;-74
2022/04/16 03:21:25;;;;;;;15.82;11.13;;;;;;;9.81;78.17;101621.38;5000216;28;20481;-74
2022/04/16 03:23:51;;;;;;;17.90;11.25;;;;;;;9.75;77.89;101607.44;5006636;28;20518;-74
2022/04/16 03:26:18;;;;;;;20.33;11.30;;;;;;;9.64;78.23;101588.31;5004891;28;20096;-75
2022/04/16 03:28:44;;;;;;;16.58;11.07;;;;;;;9.75;78.24;101615.38;5001669;28;20050;-76
2022/04/16 03:31:11;;;;;;;15.90;10.82;;;;;;;9.73;78.54;101617.19;5001744;28;20053;-74
2022/04/16 03:33:38;;;;;;;18.70;11.73;;;;;;;9.71;78.77;101601.38;5001357;28;20060;-74
2022/04/16 03:36:05;;;;;;;18.42;12.15;;;;;;;9.70;78.62;101604.03;5006219;28;20066;-74
2022/04/16 03:38:32;;;;;;;16.58;11.48;;;;;;;9.79;78.74;101630.25;5007109;28;20092;-74
2022/04/16 03:40:59;;;;;;;16.42;12.00;;;;;;;9.60;78.90;101591.97;5000632;28;20046;-74
2022/04/16 03:43:26;;;;;;;19.08;12.20;;;;;;;9.70;79.00;101617.25;5000816;28;20137;-74
2022/04/16 03:45:53;;;;;;;19.38;12.80;;;;;;;9.64;79.28;101618.28;5008699;28;20057;-75
2022/04/16 03:48:20;;;;;;;16.60;11.55;;;;;;;9.65;79.55;101632.38;5002464;28;20050;-75
2022/04/16 03:50:47;;;;;;;17.13;11.80;;;;;;;9.60;79.77;101624.53;5006549;28;20046;-75
2022/04/16 03:53:13;;;;;;;16.10;11.40;;;;;;;9.63;79.82;101634.16;5003537;28;20045;-74
2022/04/16 04:01:10;;;;;;;18.55;12.02;;;;;;;9.66;79.97;101621.75;5006080;28;20077;-75
2022/04/16 04:03:37;;;;;;;16.30;12.13;;;;;;;9.55;79.91;101602.63;5009633;28;20076;-76
2022/04/16 04:06:04;;;;;;;17.00;11.35;;;;;;;9.67;80.02;101639.38;5000789;28;20109;-76
2022/04/16 04:08:31;;;;;;;17.70;12.45;;;;;;;9.72;80.03;101647.19;5006985;28;20049;-76
2022/04/16 04:10:58;;;;;;;17.52;11.57;;;;;;;9.70;79.71;101641.06;5000775;28;20525;-76
2022/04/16 04:13:24;;;;;;;17.75;12.15;;;;;;;9.59;79.83;101628.09;5008143;28;20042;-76
2022/04/16 04:15:51;;;;;;;15.02;11.27;;;;;;;9.70;79.98;101643.72;5005242;28;20054;-75
2022/04/16 04:18:18;;;;;;;17.00;10.80;;;;;;;9.59;79.63;101625.47;5003379;28;20145;-76
2022/04/16 04:20:45;;;;;;;16.15;11.02;;;;;;;9.57;79.72;101629.03;5009148;28;20499;-75
2022/04/16 04:23:12;;;;;;;15.20;11.07;;;;;;;9.69;79.75;101650.78;5008722;28;20803;-76
2022/04/16 04:25:38;;;;;;;16.17;10.85;;;;;;;9.62;79.95;101643.00;5010223;28;20042;-76
2022/04/16 04:28:05;;;;;;;14.20;10.30;;;;;;;9.62;79.83;101653.59;5004957;28;20328;-76
2022/04/16 04:30:33;;;;;;;14.20;10.15;;;;;;;9.67;79.21;101659.66;5001513;28;20049;-76
2022/04/16 04:32:59;;;;;;;15.80;10.55;;;;;;;9.69;79.00;101663.13;5001014;28;20498;-75
2022/04/16 04:35:26;;;;;;;14.10;9.90;;;;;;;9.70;79.37;101659.59;5001890;28;21136;-76
2022/04/16 04:37:53;;;;;;;14.40;10.30;;;;;;;9.74;79.50;101664.78;5006403;28;20522;-76
2022/04/16 04:40:20;;;;;;;15.40;10.52;;;;;;;9.81;78.87;101665.47;4999807;28;20057;-76
2022/04/16 04:42:47;;;;;;;16.67;11.55;;;;;;;9.76;79.27;101667.34;5004779;28;20092;-76
2022/04/16 04:45:15;;;;;;;16.63;11.00;;;;;;;9.75;79.39;101669.16;4999677;28;20490;-75
2022/04/16 04:47:42;;;;;;;13.35;10.43;;;;;;;9.64;79.38;101663.22;5003937;28;20071;-75
2022/04/16 04:50:09;;;;;;;15.85;10.32;;;;;;;9.45;79.46;101633.69;5002132;28;20068;-75
2022/04/16 04:52:38;;;;;;;14.25;10.00;;;;;;;9.60;79.43;101671.28;4994550;28;20498;-75
2022/04/16 04:55:10;;;;;;;13.80;10.45;;;;;;;9.56;79.11;101648.47;4998922;28;20068;-76
2022/04/16 04:57:37;;;;;;;13.63;9.60;;;;;;;9.70;79.21;101680.75;5006864;28;20062;-75
2022/04/16 05:00:06;;;;;;;12.90;9.73;;;;;;;9.68;78.87;101679.91;4996601;28;20414;-75
2022/04/16 05:02:40;;;;;;;13.85;9.45;;;;;;;9.60;78.26;101660.72;4999348;28;20619;-75
2022/04/16 05:05:07;;;;;;;13.48;9.60;;;;;;;9.77;77.24;101684.97;5001836;28;20061;-75
2022/04/16 05:07:34;;;;;;;10.85;9.15;;;;;;;9.63;76.82;101673.84;5005078;28;20052;-76
2022/04/16 05:10:01;;;;;;;12.25;8.95;;;;;;;9.60;77.08;101679.22;5004410;28;20100;-76
2022/04/16 05:12:28;;;;;;;11.73;8.68;;;;;;;9.70;76.14;101702.78;5003123;28;20140;-75
2022/04/16 05:14:55;;;;;;;11.02;8.85;;;;;;;9.63;75.36;101703.81;4993610;28;20057;-75
2022/04/16 05:17:21;;;;;;;11.90;8.88;;;;;;;9.59;75.35;101701.28;4998444;28;20054;-75
2022/04/16 05:19:48;;;;;;;12.48;8.98;;;;;;;9.60;75.20;101697.75;5000713;28;20414;-75
2022/04/16 05:22:15;;;;;;;11.15;8.77;;;;;;;9.59;74.98;101710.09;5001380;28;20405;-75
2022/04/16 05:24:43;;;;;;;10.38;8.25;;;;;;;9.59;74.75;101704.81;4997265;28;20081;-76
2022/04/16 05:27:09;;;;;;;15.23;9.30;;;;;;;9.68;74.92;101711.66;4997283;28;20403;-74
2022/04/16 05:29:48;;;;;;;10.68;7.93;;;;;;;9.72;74.07;101697.47;4995372;28;20048;-74
2022/04/16 05:32:16;;;;;;;11.02;8.73;;;;;;;9.70;74.11;101688.69;5003294;28;20065;-76
2022/04/16 05:34:42;;;;;;;10.70;8.20;;;;;;;9.77;73.54;101692.91;5000002;28;20118;-75
2022/04/16 05:37:09;;;;;;;10.20;7.72;;;;;;;9.99;72.52;101710.03;4977154;28;20050;-74
2022/04/16 05:39:38;;;;;;;9.73;7.40;;;;;;;9.98;72.55;101697.72;4998205;28;20064;-74
2022/04/16 05:42:05;;;;;;;8.75;7.53;;;;;;;10.09;70.86;101711.53;5005954;28;20050;-76
2022/04/16 05:44:31;;;;;;;9.45;7.50;;;;;;;10.13;69.38;101715.88;5002576;28;20487;-77
2022/04/16 05:46:58;;;;;;;9.43;7.85;;;;;;;10.22;68.55;101733.34;5003673;28;20084;-76
2022/04/16 05:49:25;;;;;;;10.85;8.07;;;;;;;10.13;68.58;101726.47;4999352;28;20682;-74
2022/04/16 05:51:57;;;;;;;10.63;8.02;;;;;;;10.09;68.74;101727.44;4998851;28;20057;-74
2022/04/16 05:54:24;;;;;;;12.98;8.68;;;;;;;10.11;68.83;101741.50;5006362;28;20057;-76
2022/04/16 05:56:51;;;;;;;10.70;8.45;;;;;;;10.08;69.16;101738.91;5001090;28;20065;-77
2022/04/16 05:59:18;;;;;;;10.85;8.43;;;;;;;9.92;69.02;101721.66;4998885;28;20541;-76
2022/04/16 06:01:45;;;;;;;11.70;8.50;;;;;;;10.00;69.48;101740.03;4998395;28;20045;-75
2022/04/16 06:04:12;;;;;;;11.75;8.75;;;;;;;9.85;69.59;101720.06;4999447;28;20047;-75
2022/04/16 06:06:39;;;;;;;11.07;8.73;;;;;;;10.05;69.70;101751.38;5002575;28;20072;-75
2022/04/16 06:09:06;;;;;;;11.60;8.02;;;;;;;10.13;69.51;101758.22;4993805;28;20106;-75
2022/04/16 06:11:33;;;;;;;12.75;8.70;;;;;;;10.19;69.21;101755.47;5002730;28;20123;-75
2022/04/16 06:13:59;;;;;;;11.27;8.48;;;;;;;10.26;69.17;101758.81;5003012;28;20050;-75
2022/04/16 06:16:28;;;;;;;11.27;8.10;;;;;;;10.36;68.47;101770.97;4999423;28;20049;-74
2022/04/16 06:18:55;;;;;;;11.20;8.55;;;;;;;10.32;67.83;101763.97;5000911;28;20050;-75
2022/04/16 06:21:21;;;;;;;10.52;8.27;;;;;;;9.97;67.98;101714.50;5001457;28;20050;-74
2022/04/16 06:23:48;;;;;;;10.48;8.43;;;;;;;10.27;67.66;101775.56;4999179;28;20575;-76
2022/04/16 06:26:14;;;;;;;11.23;7.85;;;;;;;10.13;67.41;101774.09;5003629;28;20062;-76
2022/04/16 06:28:41;;;;;;;9.13;7.32;;;;;;;9.98;66.70;101750.63;4995496;28;20054;-77
2022/04/16 06:31:08;;;;;;;9.77;7.20;;;;;;;10.13;67.23;101783.81;5003394;28;20411;-75
2022/04/16 06:33:34;;;;;;;9.15;6.45;;;;;;;10.18;67.22;101785.50;5003415;28;20057;-75
2022/04/16 06:36:01;;;;;;;7.95;6.47;;;;;;;10.22;66.45;101785.44;5003706;28;20053;-76
2022/04/16 06:38:29;;;;;;;9.50;7.20;;;;;;;10.06;65.93;101756.63;5000025;28;20112;-74
2022/04/16 06:40:56;;;;;;;8.32;6.72;;;;;;;10.24;66.15;101787.09;5000089;28;20060;-76
2022/04/16 06:43:23;;;;;;;9.80;7.22;;;;;;;10.23;65.61;101790.66;5001965;28;21962;-75
2022/04/16 06:45:49;;;;;;;8.82;6.55;;;;;;;10.20;65.35;101785.47;5002052;28;20410;-74
2022/04/16 06:48:17;;;;;;;9.20;7.05;;;;;;;10.08;65.38;101778.63;4995223;28;20066;-75
2022/04/16 06:50:45;;;;;;;8.65;6.43;;;;;;;10.09;65.53;101783.00;5002984;28;20141;-75
2022/04/16 06:53:11;;;;;;;8.65;6.32;;;;;;;10.03;65.47;101780.53;4997353;28;20058;-74
2022/04/16 06:55:38;;;;;;;8.63;6.45;;;;;;;10.18;65.19;101801.38;4998756;28;20074;-75
2022/04/16 06:58:05;;;;;;;8.73;6.82;;;;;;;10.08;65.51;101775.97;4998127;28;20052;-78
2022/04/16 07:00:31;;;;;;;8.55;5.80;;;;;;;10.30;64.98;101794.91;4998243;28;20065;-76
2022/04/16 07:02:58;;;;;;;8.40;5.90;;;;;;;10.36;63.01;101792.13;5002017;28;20054;-74
2022/04/16 07:05:25;;;;;;;7.40;5.63;;;;;;;10.42;63.37;101804.34;5001814;28;20439;-75
2022/04/16 07:07:51;;;;;;;8.32;5.78;;;;;;;10.42;62.83;101805.22;4997482;28;20531;-74
2022/04/16 07:10:18;;;;;;;7.57;5.75;;;;;;;10.40;62.81;101820.25;4994479;28;20050;-75
2022/04/16 07:12:45;;;;;;;7.88;5.30;;;;;;;10.36;62.30;101785.97;5003454;28;20584;-75
2022/04/16 07:15:11;;;;;;;7.22;5.60;;;;;;;10.49;62.03;101808.59;5001564;28;20073;-75
2022/04/16 07:17:38;;;;;;;8.30;5.70;;;;;;;10.58;60.71;101816.31;5003587;28;20540;-77
2022/04/16 07:20:05;;;;;;;8.20;5.53;;;;;;;10.63;60.74;101814.44;5004230;28;20064;-74
2022/04/16 07:22:34;;;;;;;7.15;5.63;;;;;;;10.61;60.60;101808.28;5001935;28;20185;-76
2022/04/16 07:25:00;;;;;;;7.35;5.15;;;;;;;10.53;60.82;101807.63;5006265;28;20447;-77
2022/04/16 07:27:27;;;;;;;8.70;5.47;;;;;;;10.31;61.03;101764.00;5012707;28;20065;-76
2022/04/16 07:29:58;;;;;;;8.63;5.63;;;;;;;10.59;60.51;101799.50;5008275;28;20092;-77
2022/04/16 07:32:28;;;;;;;9.98;5.82;;;;;;;10.56;60.43;101818.13;5009569;28;20091;-74
2022/04/16 07:34:55;;;;;;;9.02;5.70;;;;;;;10.49;60.26;101803.31;5008261;28;20129;-75
2022/04/16 07:37:22;;;;;;;8.02;5.43;;;;;;;10.81;59.63;101815.75;5010547;28;20049;-77
2022/04/16 07:39:49;;;;;;;7.40;5.32;;;;;;;10.81;58.07;101782.19;5010426;28;20112;-77
2022/04/16 07:42:17;;;;;;;7.00;5.10;;;;;;;11.15;57.35;101823.69;5009060;28;20045;-76
2022/04/16 07:44:44;;;;;;;6.97;4.78;;;;;;;11.14;56.68;101811.34;5001635;28;20069;-75
2022/04/16 07:47:11;;;;;;;5.80;4.50;;;;;;;11.24;56.17;101826.97;5011197;28;20121;-75
2022/04/16 07:49:37;;;;;;;8.80;4.82;;;;;;;11.06;56.52;101823.94;5004379;28;20042;-76
2022/04/16 07:52:05;;;;;;;8.82;5.20;;;;;;;10.84;57.37;101835.09;4996987;28;20054;-75
2022/04/16 07:54:31;;;;;;;7.28;4.68;;;;;;;10.69;58.20;101816.94;4984254;28;20096;-75
2022/04/16 07:56:58;;;;;;;6.82;5.07;;;;;;;10.76;58.05;101825.59;4984465;28;20098;-75
2022/04/16 07:59:25;;;;;;;8.13;5.15;;;;;;;10.78;58.17;101842.31;4984675;28;20093;-75
2022/04/16 08:01:51;;;;;;;7.40;5.53;;;;;;;10.73;58.53;101823.88;4985061;28;20110;-75
2022/04/16 08:04:18;;;;;;;7.38;5.10;;;;;;;10.64;58.16;101781.72;4982033;28;20043;-75
2022/04/16 08:06:45;;;;;;;8.27;5.00;;;;;;;11.07;56.88;101838.91;4987535;28;20046;-77
2022/04/16 08:09:11;;;;;;;7.93;4.85;;;;;;;10.84;57.13;101821.84;4983415;28;20133;-76
2022/04/16 08:11:38;;;;;;;7.25;5.00;;;;;;;10.80;56.33;101811.34;4987555;28;20043;-75
2022/04/16 08:14:05;;;;;;;6.90;4.68;;;;;;;10.97;55.80;101834.78;4989276;28;20050;-76
2022/04/16 08:16:32;;;;;;;7.18;4.60;;;;;;;10.84;55.88;101837.75;4986741;28;20047;-75
2022/04/16 08:18:59;;;;;;;6.35;4.10;;;;;;;10.80;55.83;101836.06;4980214;28;20466;-74
2022/04/16 08:21:26;;;;;;;7.15;4.40;;;;;;;10.96;54.83;101846.28;4988868;28;20070;-74
2022/04/16 08:24:03;;;;;;;6.18;4.00;;;;;;;10.87;54.54;101828.81;4983971;28;20093;-75
2022/04/16 08:26:33;;;;;;;6.13;3.70;;;;;;;10.89;54.31;101819.06;4987132;28;20400;-78
2022/04/16 08:28:59;;;;;;;3.63;2.45;;;;;;;11.13;52.86;101854.69;5005248;28;20144;-75
2022/04/16 08:31:27;;;;;;;4.85;3.20;;;;;;;11.15;52.29;101864.34;5009092;28;20054;-75
2022/04/16 08:33:54;;;;;;;5.85;3.58;;;;;;;11.08;52.59;101856.56;5000020;28;20049;-75
2022/04/16 08:36:21;;;;;;;5.20;3.08;;;;;;;11.11;53.10;101861.81;5005096;28;20138;-75
2022/04/16 08:38:48;;;;;;;6.53;3.60;;;;;;;11.19;52.56;101850.06;5005872;28;20045;-75
2022/04/16 08:41:16;;;;;;;4.13;3.08;;;;;;;11.39;52.69;101872.53;5000218;28;20437;-75
2022/04/16 08:43:44;;;;;;;4.05;3.00;;;;;;;11.37;50.21;101871.72;5000095;28;20478;-74
2022/04/16 08:46:11;;;;;;;4.28;3.20;;;;;;;11.29;51.18;101874.59;5004550;28;20068;-74
2022/04/16 08:48:38;;;;;;;5.03;3.25;;;;;;;11.15;51.29;101855.50;4999821;28;20491;-75
2022/04/16 08:51:06;;;;;;;4.78;2.75;;;;;;;11.29;51.31;101868.41;5002841;28;20081;-76
2022/04/16 08:53:33;;;;;;;4.03;2.70;;;;;;;11.31;50.87;101879.84;5002925;28;20069;-75
2022/04/16 08:55:59;;;;;;;5.13;2.85;;;;;;;11.05;50.94;101838.09;5001467;28;20049;-75
2022/04/16 08:58:29;;;;;;;4.70;3.00;;;;;;;11.08;50.46;101867.19;5006836;28;20121;-74
2022/04/16 09:00:56;;;;;;;6.32;3.20;;;;;;;11.25;50.63;101870.25;5002547;28;20053;-75
2022/04/16 09:03:33;;;;;;;5.13;2.95;;;;;;;11.47;50.41;101865.28;5006330;28;20096;-75
2022/04/16 09:06:00;;;;;;;6.38;3.50;;;;;;;11.91;49.71;101872.88;5001653;28;20050;-76
2022/04/16 09:08:32;;;;;;;4.45;3.13;;;;;;;11.93;48.24;101880.78;4998971;28;20128;-75
2022/04/16 09:11:11;;;;;;;3.83;3.30;;;;;;;11.79;49.17;101861.75;4996271;28;20541;-78
2022/04/16 09:13:56;;;;;;;4.45;3.30;;;;;;;11.76;49.42;101867.13;4991232;28;20066;-77
2022/04/16 09:16:23;;;;;;;5.75;3.72;;;;;;;11.84;49.39;101866.00;5005030;28;20107;-76
2022/04/16 09:18:54;;;;;;;5.32;3.78;;;;;;;11.79;50.09;101867.06;5000486;28;20061;-74
2022/04/16 09:21:25;;;;;;;4.60;3.35;;;;;;;11.76;49.61;101877.75;5002464;28;20073;-75
2022/04/16 09:24:00;;;;;;;5.03;3.63;;;;;;;11.61;49.40;101860.44;4998520;28;20049;-76
2022/04/16 09:26:28;;;;;;;3.90;3.30;;;;;;;11.69;49.36;101868.19;5004640;28;20181;-78
2022/04/16 09:28:55;;;;;;;6.18;3.75;;;;;;;11.66;49.43;101860.28;4998710;28;20054;-75
2022/04/16 09:31:28;;;;;;;4.82;3.70;;;;;;;11.78;49.53;101870.63;5004213;28;20049;-77
2022/04/16 09:33:56;;;;;;;5.50;3.58;;;;;;;11.76;50.02;101837.94;4991491;28;20089;-76
2022/04/16 09:36:26;;;;;;;4.72;3.58;;;;;;;12.09;48.94;101878.56;5002427;28;20046;-76
2022/04/16 09:39:07;;;;;;;;;;;;;;;12.05;49.06;101872.47;5002729;28;20120;-74
2022/04/16 09:41:38;;;;;;;4.93;3.50;;;;;;;12.06;48.80;101874.22;5007701;28;19967;-75
2022/04/16 09:44:23;;;;;;;4.25;3.63;;;;;;;12.11;48.33;101880.25;5009170;28;20053;-76
2022/04/16 09:46:52;;;;;;;6.13;3.63;;;;;;;11.87;47.96;101860.59;5004567;28;20477;-78
2022/04/16 09:49:20;;;;;;;6.75;3.92;;;;;;;11.75;48.48;101852.09;5007476;28;20060;-74
2022/04/16 09:51:48;;;;;;;7.05;3.72;;;;;;;11.87;48.72;101870.34;5009697;28;20054;-78
2022/04/16 09:54:16;;;;;;;4.85;3.42;;;;;;;12.00;48.13;101882.34;5001534;28;20739;-78
2022/04/16 09:56:46;;;;;;;4.60;3.38;;;;;;;12.18;47.47;101868.53;5005046;28;20050;-74
2022/04/16 09:59:15;;;;;;;6.03;3.22;;;;;;;12.28;47.79;101875.28;5005813;28;20042;-77
2022/04/16 10:01:48;;;;;;;4.63;3.38;;;;;;;12.34;46.83;101881.34;5006929;28;20042;-74
2022/04/16 10:04:16;;;;;;;5.68;3.28;;;;;;;12.15;47.35;101850.03;5005095;28;20073;-75
2022/04/16 10:06:44;;;;;;;4.38;3.40;;;;;;;12.48;46.14;101884.44;5007472;28;20041;-76
2022/04/16 10:09:13;;;;;;;4.38;3.33;;;;;;;12.39;46.83;101864.34;5001947;28;20054;-77
2022/04/16 10:14:37;;;;;;;4.00;3.20;;;;;;;12.48;45.93;101857.88;5003776;28;20096;-75
2022/04/16 10:17:27;;;;;;;3.33;2.90;;;;;;;12.64;45.98;101869.75;5006988;28;20073;-76
2022/04/16 10:20:06;;;;;;;4.03;3.03;;;;;;;12.66;45.61;101867.91;5005302;28;20065;-75
2022/04/16 10:22:33;;;;;;;4.93;3.22;;;;;;;12.69;45.23;101866.94;5004715;28;20130;-76
2022/04/16 10:25:00;;;;;;;3.08;2.70;;;;;;;12.75;44.89;101856.13;5002612;28;20045;-75
2022/04/16 10:27:28;;;;;;;3.30;2.65;;;;;;;12.64;43.34;101837.84;5003287;28;20256;-75
2022/04/16 10:29:59;;;;;;;4.35;2.97;;;;;;;12.64;43.23;101859.13;5006278;28;20053;-76
2022/04/16 10:32:45;;;;;;;3.40;2.58;;;;;;;12.52;43.02;101860.38;5003078;28;20054;-75
2022/04/16 10:35:14;;;;;;;2.75;2.30;;;;;;;12.65;43.36;101858.19;5005781;28;20049;-76
2022/04/16 10:37:43;;;;;;;3.65;2.47;;;;;;;12.73;42.04;101853.53;5002818;28;20050;-75
2022/04/16 10:40:20;;;;;;;4.20;2.83;;;;;;;12.85;42.89;101857.56;5001310;28;20552;-77
2022/04/16 10:42:57;;;;;;;4.05;2.53;;;;;;;12.92;41.57;101859.06;5001117;28;20067;-76
2022/04/16 10:45:25;;;;;;;3.60;2.40;;;;;;;12.90;41.33;101831.69;4986069;28;20101;-75
2022/04/16 10:47:55;;;;;;;4.68;2.35;;;;;;;13.03;41.96;101818.84;4977298;28;20053;-74
2022/04/16 10:50:23;;;;;;;2.85;2.10;;;;;;;13.27;40.27;101826.84;4983968;28;20054;-75
2022/04/16 10:52:56;;;;;;;3.75;2.55;;;;;;;13.25;39.64;101818.06;4985989;28;20122;-76
2022/04/16 10:55:30;;;;;;;2.83;2.10;;;;;;;13.58;39.46;101850.56;4988899;28;20214;-74
2022/04/16 10:58:06;;;;;;;3.58;2.50;;;;;;;13.33;38.36;101792.06;4983383;28;20340;-76
2022/04/16 11:00:44;;;;;;;4.03;2.20;;;;;;;13.52;38.76;101821.53;4986383;28;20059;-75
2022/04/16 11:03:17;;;;;;;2.72;2.30;;;;;;;13.54;38.30;101792.19;4988882;28;20407;-76
2022/04/16 11:05:45;;;;;;;3.35;1.83;;;;;;;13.88;37.94;101834.38;4992103;28;20077;-75
2022/04/16 11:08:16;;;;;;;2.70;2.00;;;;;;;13.75;37.44;101839.31;4992864;28;20112;-77
2022/04/16 11:10:43;;;;;;;2.55;1.90;;;;;;;13.62;38.01;101841.56;4988393;28;20046;-76
2022/04/16 11:13:12;;;;;;;2.70;1.98;;;;;;;13.59;37.89;101808.84;4987473;28;20090;-77
2022/04/16 11:15:40;;;;;;;2.13;1.80;;;;;;;13.87;36.90;101820.19;4987802;28;20502;-76
2022/04/16 11:18:07;;;;;;;3.88;2.30;;;;;;;13.95;36.87;101827.91;4979534;28;20129;-77
2022/04/16 11:20:34;;;;;;;1.95;1.73;;;;;;;13.84;37.50;101835.44;4988357;28;20136;-75
2022/04/16 11:23:02;;;;;;;2.95;2.17;;;;;;;13.74;37.33;101828.72;4980319;28;20049;-76
2022/04/16 11:34:14;;;;;;;2.75;2.08;;;;;;;13.86;37.13;101833.56;4981769;28;20081;-76
2022/04/16 11:36:32;;;;;;;3.05;1.75;;;;;;;13.97;36.69;101850.03;5008765;28;20512;-72
2022/04/16 11:38:59;;;;;;;2.55;1.80;;;;;;;14.04;36.00;101816.91;5002856;28;20136;-73
2022/04/16 11:41:28;;;;;;;1.80;1.60;;;;;;;14.32;35.79;101832.69;5007458;28;20129;-74
2022/04/16 11:43:54;;;;;;;2.78;1.95;;;;;;;14.11;35.65;101834.38;5000026;28;20058;-74
2022/04/16 11:46:23;;;;;;;4.68;1.95;;;;;;;14.20;35.42;101818.03;5004916;28;20081;-74
2022/04/16 11:48:51;;;;;;;2.53;1.42;;;;;;;14.43;35.41;101808.31;5003246;28;20487;-73
2022/04/16 11:51:19;;;;;;;3.38;1.55;;;;;;;14.72;34.28;101821.28;5005013;28;20042;-73